Time;durP1;ratioP1;P1;durP2;ratioP2;P2;SDS_P1;SDS_P2;PMS_P1;PMS_P2;Temp;Humidity;BMP_temperature;BMP_pressure;BME280_temperature;BME280_humidity;BME280_pressure;Samples;Min_cycle;Max_cycle;Signal;HPM_P1;HPM_P2
2022/03/09 00:03:37;;;;;;;58.88;31.58;;;;;;;-0.60;61.30;96487.72;10273505;28;98206;-78
2022/03/09 00:08:40;;;;;;;55.60;29.80;;;;;;;-0.61;61.40;96486.06;10282069;28;97171;-78
2022/03/09 00:13:45;;;;;;;52.83;28.35;;;;;;;-0.68;61.88;96479.53;10274070;28;99113;-78
2022/03/09 00:18:48;;;;;;;50.43;29.00;;;;;;;-0.72;60.86;96484.00;10271827;28;98863;-78
2022/03/09 00:23:51;;;;;;;58.90;33.47;;;;;;;-0.93;61.88;96502.06;10281621;28;98841;-78
2022/03/09 00:28:56;;;;;;;57.67;31.58;;;;;;;-0.89;61.57;96507.88;10278657;28;99117;-78
2022/03/09 00:33:58;;;;;;;58.55;31.25;;;;;;;-0.75;61.37;96520.91;10279514;28;98503;-78
2022/03/09 00:39:01;;;;;;;54.28;29.63;;;;;;;-0.83;60.48;96529.84;10288625;28;96899;-78
2022/03/09 00:44:06;;;;;;;55.03;31.45;;;;;;;-1.02;62.13;96545.25;10282809;28;96986;-78
2022/03/09 00:49:10;;;;;;;57.40;31.60;;;;;;;-1.33;63.00;96550.00;10271592;28;99882;-78
2022/03/09 00:54:13;;;;;;;53.33;29.58;;;;;;;-1.27;62.65;96565.09;10291356;28;97565;-78
2022/03/09 00:59:17;;;;;;;53.40;30.05;;;;;;;-1.23;62.44;96570.94;10281359;28;96919;-78
2022/03/09 01:04:20;;;;;;;55.55;31.45;;;;;;;-1.23;62.93;96554.72;10282867;28;96999;-78
2022/03/09 01:09:23;;;;;;;54.08;29.58;;;;;;;-1.26;63.32;96558.25;10302823;28;96946;-78
2022/03/09 01:14:28;;;;;;;60.75;32.55;;;;;;;-1.24;62.33;96559.00;10273708;28;96961;-78
2022/03/09 01:19:30;;;;;;;66.10;34.58;;;;;;;-1.33;63.94;96567.94;10274476;28;97922;-78
2022/03/09 01:24:33;;;;;;;49.15;28.00;;;;;;;-1.30;63.11;96554.97;10289922;28;99242;-78
2022/03/09 01:29:38;;;;;;;55.20;29.33;;;;;;;-1.24;64.75;96559.00;10293716;28;97613;-78
2022/03/09 01:34:41;;;;;;;51.63;27.52;;;;;;;-1.17;63.88;96555.28;10294180;28;96932;-78
2022/03/09 01:39:44;;;;;;;50.53;27.45;;;;;;;-1.19;62.85;96559.63;10282566;28;96918;-78
2022/03/09 01:44:49;;;;;;;46.85;26.08;;;;;;;-1.22;63.27;96557.22;10287092;28;97273;-78
2022/03/09 01:49:52;;;;;;;45.17;25.08;;;;;;;-1.28;62.84;96567.72;10292252;28;96883;-78
2022/03/09 01:54:55;;;;;;;42.60;24.40;;;;;;;-1.26;62.96;96563.38;10281548;28;97119;-78
2022/03/09 02:00:00;;;;;;;41.58;23.95;;;;;;;-1.30;62.73;96551.59;10292598;28;97005;-78
2022/03/09 02:05:03;;;;;;;45.42;23.95;;;;;;;-1.42;62.95;96544.44;10278484;28;98145;-78
2022/03/09 02:10:08;;;;;;;38.42;22.80;;;;;;;-1.56;62.00;96543.31;10293634;28;97490;-78
2022/03/09 02:15:12;;;;;;;46.57;25.77;;;;;;;-1.68;62.54;96546.41;10287341;28;96925;-78
2022/03/09 02:20:15;;;;;;;45.22;25.23;;;;;;;-1.75;62.23;96539.88;10291691;28;96729;-78
2022/03/09 02:25:20;;;;;;;51.38;28.15;;;;;;;-1.91;63.49;96555.06;10309341;28;96909;-79
2022/03/09 02:30:23;;;;;;;52.90;27.77;;;;;;;-2.19;64.59;96547.66;10287452;28;99463;-78
2022/03/09 02:35:26;;;;;;;52.22;27.58;;;;;;;-2.19;65.38;96557.91;10278635;28;97034;-78
2022/03/09 02:40:30;;;;;;;53.95;28.48;;;;;;;-2.16;64.40;96563.75;10302589;28;96813;-78
2022/03/09 02:45:33;;;;;;;54.35;29.08;;;;;;;-2.26;66.00;96568.38;10277117;28;97740;-78
2022/03/09 02:50:36;;;;;;;59.80;30.95;;;;;;;-2.16;64.69;96568.00;10276764;28;97957;-78
2022/03/09 02:55:40;;;;;;;58.38;31.88;;;;;;;-2.16;65.71;96568.00;10276815;28;97628;-78
2022/03/09 03:00:43;;;;;;;62.53;33.30;;;;;;;-2.33;66.45;96582.31;10279090;28;96977;-78
2022/03/09 03:05:46;;;;;;;55.28;28.88;;;;;;;-2.32;66.91;96580.59;10278935;28;96989;-78
2022/03/09 03:10:51;;;;;;;54.38;29.40;;;;;;;-2.31;67.71;96575.41;10291035;28;96994;-78
2022/03/09 03:15:54;;;;;;;57.28;29.35;;;;;;;-2.18;66.48;96570.63;10293404;28;97535;-78
2022/03/09 03:20:56;;;;;;;54.75;29.08;;;;;;;-2.07;66.01;96575.34;10289614;28;97294;-78
2022/03/09 03:26:02;;;;;;;58.20;30.85;;;;;;;-2.03;67.00;96582.00;10300797;28;96863;-78
2022/03/09 03:31:06;;;;;;;48.13;27.00;;;;;;;-2.19;66.20;96574.09;10279616;28;97086;-78
2022/03/09 03:36:09;;;;;;;51.92;28.52;;;;;;;-2.18;66.57;96573.19;10287931;28;97055;-78
2022/03/09 03:41:13;;;;;;;47.20;25.92;;;;;;;-2.23;65.84;96570.84;10299727;28;96783;-78
2022/03/09 03:46:16;;;;;;;46.40;24.95;;;;;;;-2.36;65.88;96579.88;10280834;28;96724;-78
2022/03/09 03:51:19;;;;;;;45.80;24.60;;;;;;;-2.47;64.35;96569.22;10279453;28;98835;-78
2022/03/09 03:56:23;;;;;;;45.50;24.63;;;;;;;-2.57;65.26;96579.00;10301004;28;98136;-78
2022/03/09 04:01:26;;;;;;;44.65;24.15;;;;;;;-2.58;65.07;96589.28;10285815;28;97512;-78
2022/03/09 04:06:30;;;;;;;48.00;24.92;;;;;;;-2.66;64.65;96587.84;10283408;28;99836;-78
2022/03/09 04:11:38;;;;;;;48.20;23.98;;;;;;;-2.69;64.25;96594.81;10297900;28;97013;-78
2022/03/09 04:16:41;;;;;;;46.60;25.65;;;;;;;-2.76;64.76;96589.09;10274713;28;97007;-78
2022/03/09 04:21:45;;;;;;;47.33;24.33;;;;;;;-2.81;64.27;96591.81;10272109;28;100763;-78
2022/03/09 04:26:50;;;;;;;54.13;28.50;;;;;;;-2.91;66.62;96594.78;10301319;28;96877;-78
2022/03/09 04:31:52;;;;;;;53.00;28.33;;;;;;;-3.04;67.03;96608.00;10273721;28;97339;-78
2022/03/09 04:36:55;;;;;;;55.58;27.75;;;;;;;-2.99;66.60;96608.69;10286860;28;96857;-78
2022/03/09 04:42:00;;;;;;;51.28;26.63;;;;;;;-2.92;65.77;96608.44;10294505;28;97241;-78
2022/03/09 04:47:03;;;;;;;50.25;26.20;;;;;;;-2.98;65.67;96615.44;10281445;28;96980;-78
2022/03/09 04:52:07;;;;;;;46.83;25.20;;;;;;;-3.00;65.25;96616.41;10275693;28;97197;-78
2022/03/09 04:57:11;;;;;;;45.00;23.55;;;;;;;-3.07;65.07;96609.84;10292737;28;96832;-78
2022/03/09 05:02:14;;;;;;;47.63;24.17;;;;;;;-3.12;65.61;96617.66;10279848;28;96747;-78
2022/03/09 05:07:17;;;;;;;50.90;26.52;;;;;;;-3.06;66.11;96609.78;10274714;28;96786;-78
2022/03/09 05:12:21;;;;;;;48.08;24.95;;;;;;;-3.12;64.67;96602.34;10290744;28;96921;-78
2022/03/09 05:17:24;;;;;;;48.47;26.45;;;;;;;-3.16;64.94;96611.00;10280015;28;96978;-79
2022/03/09 05:22:27;;;;;;;51.42;26.15;;;;;;;-3.22;65.21;96606.09;10276802;28;97008;-78
2022/03/09 05:27:31;;;;;;;51.03;26.20;;;;;;;-3.21;65.88;96607.78;10276217;28;97220;-78
2022/03/09 05:32:34;;;;;;;48.78;26.65;;;;;;;-3.23;66.01;96605.28;10272501;28;97298;-78
2022/03/09 05:37:38;;;;;;;44.42;22.98;;;;;;;-3.28;64.81;96616.56;10274464;28;97430;-78
2022/03/09 05:42:44;;;;;;;43.73;23.80;;;;;;;-3.30;65.75;96620.91;10280626;28;97247;-79
2022/03/09 05:47:54;;;;;;;44.70;23.30;;;;;;;-3.41;64.90;96622.09;10277156;28;97035;-78
2022/03/09 05:52:57;;;;;;;41.63;22.15;;;;;;;-3.53;64.74;96614.88;10281939;28;96769;-78
2022/03/09 05:58:01;;;;;;;45.58;22.48;;;;;;;-3.62;64.44;96617.72;10284558;28;96810;-79
2022/03/09 06:03:04;;;;;;;44.38;21.45;;;;;;;-3.66;63.77;96616.97;10282841;28;96960;-78
2022/03/09 06:08:07;;;;;;;45.67;23.98;;;;;;;-3.61;64.09;96616.84;10271202;28;96895;-78
2022/03/09 06:13:11;;;;;;;49.40;25.67;;;;;;;-3.59;65.59;96618.44;10290302;28;96816;-78
2022/03/09 06:18:14;;;;;;;54.28;28.33;;;;;;;-3.57;65.87;96620.94;10280871;28;98503;-78
2022/03/09 06:23:17;;;;;;;47.17;24.30;;;;;;;-3.55;65.86;96631.94;10288548;28;97106;-78
2022/03/09 06:28:22;;;;;;;45.85;23.65;;;;;;;-3.48;65.29;96633.38;10281070;28;98041;-78
2022/03/09 06:33:25;;;;;;;51.60;25.45;;;;;;;-3.39;65.97;96635.66;10292294;28;97570;-78
2022/03/09 06:38:31;;;;;;;46.13;24.02;;;;;;;-3.38;64.85;96639.84;10283812;28;98048;-78
2022/03/09 06:43:35;;;;;;;44.70;23.55;;;;;;;-3.36;65.00;96643.22;10276176;28;98267;-78
2022/03/09 06:48:38;;;;;;;46.40;23.15;;;;;;;-3.35;63.65;96644.03;10279887;28;97203;-78
2022/03/09 06:53:42;;;;;;;45.30;22.73;;;;;;;-3.33;64.30;96644.00;10289222;28;97680;-78
2022/03/09 06:58:46;;;;;;;43.70;22.38;;;;;;;-3.28;62.98;96648.03;10288180;28;96976;-78
2022/03/09 07:03:49;;;;;;;48.53;26.17;;;;;;;-3.13;63.38;96651.78;10275532;28;96842;-78
2022/03/09 07:08:52;;;;;;;55.35;28.58;;;;;;;-3.00;64.72;96658.13;10300518;28;97281;-78
2022/03/09 07:13:56;;;;;;;48.78;26.67;;;;;;;-2.85;64.91;96661.03;10292319;28;96838;-78
2022/03/09 07:18:59;;;;;;;45.15;24.20;;;;;;;-2.83;63.55;96675.41;10274904;28;97716;-78
2022/03/09 07:24:02;;;;;;;43.17;23.70;;;;;;;-2.80;63.29;96675.31;10280826;28;96931;-78
2022/03/09 07:29:06;;;;;;;43.05;23.10;;;;;;;-2.77;63.19;96674.34;10282919;28;98472;-78
2022/03/09 07:34:10;;;;;;;52.43;27.20;;;;;;;-2.67;62.28;96675.69;10279085;28;96954;-78
2022/03/09 07:39:14;;;;;;;52.33;27.27;;;;;;;-2.56;62.01;96677.03;10287094;28;96939;-78
2022/03/09 07:44:18;;;;;;;55.60;28.83;;;;;;;-2.44;61.53;96684.25;10275625;28;97615;-78
2022/03/09 07:49:21;;;;;;;53.05;28.05;;;;;;;-2.25;60.98;96686.94;10289172;28;100252;-78
2022/03/09 07:54:25;;;;;;;48.92;27.13;;;;;;;-2.13;61.91;96693.31;10304445;28;97733;-78
2022/03/09 07:59:30;;;;;;;49.55;26.70;;;;;;;-2.05;60.76;96681.88;10293371;28;96905;-78
2022/03/09 08:04:33;;;;;;;50.35;27.83;;;;;;;-1.92;61.21;96679.66;10297677;28;96885;-78
2022/03/09 08:09:36;;;;;;;51.03;25.27;;;;;;;-1.81;60.04;96696.34;10288681;28;96852;-78
2022/03/09 08:14:40;;;;;;;52.42;27.85;;;;;;;-1.61;60.62;96687.88;10281200;28;96943;-79
2022/03/09 08:19:45;;;;;;;49.15;26.95;;;;;;;-1.39;60.24;96687.84;10265177;28;97015;-78
2022/03/09 08:24:48;;;;;;;50.75;27.67;;;;;;;-1.27;59.37;96687.31;10288520;28;96849;-78
2022/03/09 08:29:52;;;;;;;54.60;28.25;;;;;;;-1.05;59.84;96681.28;10271346;28;96799;-78
2022/03/09 08:34:55;;;;;;;57.35;29.02;;;;;;;-0.85;59.95;96683.81;10271898;28;97082;-78
2022/03/09 08:39:58;;;;;;;67.40;34.83;;;;;;;-0.71;60.29;96683.22;10295255;28;97197;-78
2022/03/09 08:45:02;;;;;;;65.70;33.85;;;;;;;-0.50;61.79;96681.41;10270662;28;99857;-78
2022/03/09 08:50:06;;;;;;;62.73;32.30;;;;;;;-0.24;60.81;96689.69;10273275;28;97574;-78
2022/03/09 08:55:29;;;;;;;65.80;34.88;;;;;;;-0.04;61.44;96687.03;10301866;28;96958;-78
2022/03/09 09:00:34;;;;;;;59.67;31.88;;;;;;;0.12;61.11;96686.31;10262560;28;96788;-78
2022/03/09 09:05:37;;;;;;;62.97;32.80;;;;;;;0.32;61.29;96682.78;10273430;28;96794;-78
2022/03/09 09:10:40;;;;;;;61.95;33.35;;;;;;;0.53;60.75;96686.88;10301658;28;97073;-79
2022/03/09 09:15:45;;;;;;;71.68;36.72;;;;;;;0.91;61.58;96691.00;10261646;28;97021;-78
2022/03/09 09:20:49;;;;;;;65.22;36.80;;;;;;;1.11;60.85;96685.69;10269344;28;97534;-78
2022/03/09 09:25:52;;;;;;;62.97;35.30;;;;;;;1.27;60.10;96690.88;10299088;28;96781;-78
2022/03/09 09:30:57;;;;;;;65.10;35.47;;;;;;;1.51;61.08;96691.34;10263182;28;96857;-79
2022/03/09 09:36:00;;;;;;;60.30;36.05;;;;;;;1.72;60.39;96684.22;10281991;28;97027;-79
2022/03/09 09:41:03;;;;;;;68.63;37.97;;;;;;;2.00;61.11;96669.00;10302452;28;96827;-78
2022/03/09 09:46:08;;;;;;;60.80;35.50;;;;;;;2.16;60.25;96671.56;10265720;28;96982;-79
2022/03/09 09:51:12;;;;;;;62.28;35.53;;;;;;;2.33;60.68;96662.91;10274362;28;96796;-79
2022/03/09 09:56:15;;;;;;;65.75;37.03;;;;;;;2.49;60.30;96655.94;10305834;28;96901;-79
2022/03/09 10:01:20;;;;;;;61.08;36.08;;;;;;;2.72;60.63;96654.63;10274810;28;96904;-79
2022/03/09 10:06:23;;;;;;;59.95;34.22;;;;;;;2.92;60.17;96662.94;10270671;28;97094;-79
2022/03/09 10:11:26;;;;;;;60.03;33.63;;;;;;;3.10;59.96;96658.44;10306266;28;96958;-79
2022/03/09 10:16:31;;;;;;;64.53;35.10;;;;;;;3.31;59.55;96652.00;10277616;28;96720;-79
2022/03/09 10:21:37;;;;;;;58.05;34.85;;;;;;;3.49;59.13;96655.22;10266771;28;96931;-79
2022/03/09 10:26:48;;;;;;;60.17;34.88;;;;;;;3.67;59.23;96665.34;10300953;28;97006;-79
2022/03/09 10:31:59;;;;;;;60.10;34.97;;;;;;;3.88;58.98;96651.06;10278671;28;96718;-79
2022/03/09 10:37:06;;;;;;;58.75;34.08;;;;;;;4.05;58.59;96649.19;10269251;28;97387;-79
2022/03/09 10:42:23;;;;;;;57.90;34.85;;;;;;;4.29;58.82;96646.78;10295836;28;97057;-79
2022/03/09 10:47:33;;;;;;;59.42;34.13;;;;;;;4.45;58.56;96651.78;10278833;28;97035;-79
2022/03/09 10:52:47;;;;;;;54.75;33.55;;;;;;;4.55;57.55;96643.34;10276111;28;96794;-79
2022/03/09 10:57:50;;;;;;;53.58;32.50;;;;;;;4.74;57.81;96639.53;10267367;28;97095;-78
2022/03/09 11:02:54;;;;;;;52.60;32.90;;;;;;;4.93;57.39;96632.19;10274848;28;96836;-79
2022/03/09 11:07:58;;;;;;;51.75;30.73;;;;;;;5.14;57.18;96623.91;10277656;28;96777;-79
2022/03/09 11:13:02;;;;;;;57.55;33.22;;;;;;;5.32;57.15;96624.41;10293343;28;96921;-79
2022/03/09 11:18:08;;;;;;;52.95;31.95;;;;;;;5.56;57.09;96616.69;10280895;28;96937;-79
2022/03/09 11:23:12;;;;;;;48.40;30.35;;;;;;;5.79;56.85;96614.25;10283481;28;96776;-79
2022/03/09 11:28:23;;;;;;;48.42;31.08;;;;;;;5.98;56.55;96612.00;10306095;28;96785;-79
2022/03/09 11:33:41;;;;;;;47.38;28.38;;;;;;;6.14;56.56;96605.69;10267281;28;100130;-79
2022/03/09 11:38:45;;;;;;;46.25;29.17;;;;;;;6.26;56.14;96602.22;10292008;28;97380;-79
2022/03/09 11:43:48;;;;;;;46.25;30.08;;;;;;;6.40;55.23;96596.00;10288580;28;96941;-79
2022/03/09 11:48:54;;;;;;;47.88;29.50;;;;;;;6.64;55.69;96583.81;10266189;28;96812;-79
2022/03/09 11:53:58;;;;;;;49.05;32.13;;;;;;;6.76;55.21;96587.25;10291423;28;97979;-79
2022/03/09 11:59:16;;;;;;;47.03;30.42;;;;;;;6.85;55.24;96581.38;10284858;28;96864;-79
2022/03/09 12:04:48;;;;;;;43.50;28.67;;;;;;;7.07;54.96;96584.94;10271055;28;97312;-79
2022/03/09 12:09:55;;;;;;;44.30;28.30;;;;;;;7.21;54.60;96566.56;10291215;28;96907;-79
2022/03/09 12:14:59;;;;;;;46.10;28.95;;;;;;;7.36;53.98;96563.69;10271873;28;97077;-79
2022/03/09 12:20:20;;;;;;;40.77;26.57;;;;;;;7.53;53.28;96555.41;10274452;28;96875;-79
2022/03/09 12:25:40;;;;;;;40.63;26.60;;;;;;;7.59;53.32;96554.91;10298908;28;96955;-79
2022/03/09 12:30:47;;;;;;;43.22;26.92;;;;;;;7.73;53.13;96553.00;10264409;28;97048;-79
2022/03/09 12:35:52;;;;;;;36.92;25.15;;;;;;;7.80;53.07;96554.16;10271162;28;96784;-79
2022/03/09 12:41:27;;;;;;;40.15;26.27;;;;;;;8.03;52.22;96549.72;10303750;28;97018;-79
2022/03/09 12:46:31;;;;;;;42.42;25.70;;;;;;;8.15;52.07;96543.50;10271957;28;96807;-79
2022/03/09 12:51:50;;;;;;;37.17;25.05;;;;;;;8.45;51.66;96541.13;10261635;28;97049;-79
2022/03/09 12:57:08;;;;;;;33.38;22.58;;;;;;;8.64;50.93;96536.03;10299809;28;97015;-79
2022/03/09 13:02:11;;;;;;;32.58;21.75;;;;;;;8.82;51.24;96528.44;10273775;28;97531;-79
2022/03/09 13:07:15;;;;;;;39.65;24.63;;;;;;;9.01;50.38;96526.88;10267048;28;97187;-79
2022/03/09 13:12:18;;;;;;;38.03;23.97;;;;;;;9.28;49.95;96524.50;10291559;28;97044;-79
2022/03/09 13:17:21;;;;;;;39.55;23.88;;;;;;;9.40;48.84;96516.56;10273373;28;97021;-79
2022/03/09 13:22:26;;;;;;;37.05;23.10;;;;;;;9.50;48.75;96519.25;10275601;28;96888;-79
2022/03/09 13:27:30;;;;;;;37.23;23.20;;;;;;;9.75;48.32;96518.75;10300101;28;97074;-79
2022/03/09 13:32:34;;;;;;;39.50;24.27;;;;;;;9.98;47.47;96516.69;10280225;28;97030;-79
2022/03/09 13:37:40;;;;;;;34.97;23.40;;;;;;;10.29;47.25;96502.63;10276382;28;96887;-79
2022/03/09 13:42:45;;;;;;;37.03;25.35;;;;;;;10.60;47.21;96501.50;10283470;28;96929;-79
2022/03/09 13:47:51;;;;;;;38.50;24.58;;;;;;;10.80;46.28;96493.59;10278161;28;97107;-79
2022/03/09 13:53:08;;;;;;;36.08;23.20;;;;;;;11.16;45.75;96485.91;10282113;28;96842;-79
2022/03/09 13:58:15;;;;;;;38.53;24.92;;;;;;;11.55;44.66;96481.31;10294781;28;96935;-79
2022/03/09 14:03:19;;;;;;;39.97;25.33;;;;;;;11.96;44.22;96480.84;10272583;28;96814;-79
2022/03/09 14:08:28;;;;;;;37.33;24.73;;;;;;;12.40;43.20;96480.06;10286842;28;97606;-79
2022/03/09 14:13:33;;;;;;;33.63;23.83;;;;;;;12.76;43.17;96480.78;10295574;28;98140;-80
2022/03/09 14:18:36;;;;;;;34.90;23.08;;;;;;;13.00;42.42;96481.91;10266888;28;97622;-79
2022/03/09 14:23:41;;;;;;;37.45;25.52;;;;;;;13.31;42.52;96481.38;10292414;28;96913;-80
2022/03/09 14:28:43;;;;;;;38.33;26.13;;;;;;;13.72;41.24;96470.97;10290546;28;96924;-80
2022/03/09 14:33:47;;;;;;;36.10;26.15;;;;;;;14.10;40.99;96469.53;10266787;28;96944;-80
2022/03/09 14:38:52;;;;;;;36.55;25.17;;;;;;;14.40;40.95;96471.69;10292105;28;97923;-80
2022/03/09 14:43:55;;;;;;;35.70;24.90;;;;;;;14.29;40.08;96471.00;10289095;28;96917;-80
2022/03/09 14:48:57;;;;;;;39.88;25.25;;;;;;;13.87;39.45;96469.38;10267974;28;96743;-80
2022/03/09 14:54:02;;;;;;;36.15;24.05;;;;;;;14.42;38.77;96472.34;10295849;28;96981;-80
2022/03/09 14:59:05;;;;;;;34.40;23.90;;;;;;;14.90;38.06;96466.16;10285566;28;96916;-80
2022/03/09 15:04:10;;;;;;;36.42;24.55;;;;;;;14.33;38.66;96461.00;10270419;28;96991;-80
2022/03/09 15:09:18;;;;;;;36.60;23.50;;;;;;;14.74;38.39;96472.28;10292878;28;96824;-80
2022/03/09 15:14:27;;;;;;;35.50;23.85;;;;;;;15.25;37.49;96463.25;10308823;28;97034;-80
2022/03/09 15:19:36;;;;;;;31.80;22.63;;;;;;;15.46;37.58;96465.28;10274831;28;96807;-80
2022/03/09 15:24:41;;;;;;;35.25;22.73;;;;;;;15.74;37.06;96457.75;10294577;28;97045;-80
2022/03/09 15:29:43;;;;;;;32.25;22.58;;;;;;;16.01;36.37;96460.84;10275478;28;96873;-80
2022/03/09 15:34:48;;;;;;;36.20;23.35;;;;;;;16.06;35.82;96467.22;10288115;28;97039;-80
2022/03/09 15:39:55;;;;;;;32.33;22.52;;;;;;;16.34;35.74;96471.94;10295484;28;99022;-80
2022/03/09 15:44:58;;;;;;;32.95;22.50;;;;;;;16.48;35.61;96470.34;10272387;28;96933;-80
2022/03/09 15:50:01;;;;;;;29.75;21.92;;;;;;;16.56;35.45;96467.63;10276477;28;96904;-80
2022/03/09 15:55:07;;;;;;;31.27;21.13;;;;;;;16.73;35.57;96475.41;10297204;28;97575;-80
2022/03/09 16:00:12;;;;;;;33.05;22.35;;;;;;;16.83;34.67;96483.88;10279148;28;96853;-80
2022/03/09 16:05:16;;;;;;;31.13;21.73;;;;;;;16.88;35.10;96478.88;10276194;28;97041;-80
2022/03/09 16:10:21;;;;;;;32.30;22.03;;;;;;;16.82;34.67;96482.25;10297028;28;97005;-80
2022/03/09 16:15:24;;;;;;;32.22;22.15;;;;;;;16.86;34.75;96474.78;10266355;28;96982;-80
2022/03/09 16:20:28;;;;;;;32.13;21.35;;;;;;;16.93;34.50;96479.16;10275033;28;97214;-80
2022/03/09 16:25:33;;;;;;;31.10;21.38;;;;;;;17.04;34.57;96484.97;10302272;28;97281;-80
2022/03/09 16:30:37;;;;;;;33.05;21.90;;;;;;;17.07;34.05;96485.44;10262562;28;97094;-80
2022/03/09 16:35:40;;;;;;;33.15;21.05;;;;;;;16.77;34.44;96489.88;10284872;28;96813;-80
2022/03/09 16:40:45;;;;;;;30.98;20.70;;;;;;;16.61;34.25;96496.94;10303826;28;96937;-80
2022/03/09 16:45:47;;;;;;;30.83;21.42;;;;;;;16.43;34.69;96496.41;10264144;28;97970;-79
2022/03/09 16:50:50;;;;;;;29.05;20.60;;;;;;;16.09;35.36;96497.69;10271102;28;98543;-80
2022/03/09 16:55:54;;;;;;;30.88;21.00;;;;;;;15.62;35.31;96493.38;10302373;28;96985;-80
2022/03/09 17:00:57;;;;;;;;;;;;;;;15.12;36.48;96504.09;10264024;28;96847;-80
2022/03/09 17:06:01;;;;;;;30.63;20.63;;;;;;;14.31;36.80;96502.38;10271429;28;96962;-80
2022/03/09 17:11:05;;;;;;;30.00;21.02;;;;;;;13.48;38.99;96498.84;10300315;28;96897;-79
2022/03/09 17:16:08;;;;;;;35.67;22.23;;;;;;;13.07;39.43;96503.91;10275343;28;97150;-79
2022/03/09 17:21:12;;;;;;;32.78;21.42;;;;;;;12.17;41.03;96514.59;10287914;28;97958;-79
2022/03/09 17:26:16;;;;;;;32.33;21.37;;;;;;;11.38;42.38;96512.66;10305296;28;97367;-79
2022/03/09 17:31:19;;;;;;;32.03;21.40;;;;;;;10.78;43.42;96519.88;10283271;28;97007;-79
2022/03/09 17:36:22;;;;;;;37.80;23.20;;;;;;;10.66;43.55;96535.88;10265737;28;96886;-79
2022/03/09 17:41:26;;;;;;;35.08;22.20;;;;;;;10.51;43.67;96538.94;10300373;28;97185;-79
2022/03/09 17:46:29;;;;;;;33.90;23.67;;;;;;;10.12;43.97;96540.75;10266739;28;98758;-78
2022/03/09 17:51:33;;;;;;;34.67;21.13;;;;;;;9.46;45.32;96548.19;10277357;28;97786;-78
2022/03/09 17:56:37;;;;;;;34.88;20.40;;;;;;;8.64;47.16;96556.03;10271357;28;99773;-79
2022/03/09 18:01:40;;;;;;;32.20;21.10;;;;;;;8.09;47.56;96561.41;10269933;28;99683;-79
2022/03/09 18:06:46;;;;;;;34.28;20.95;;;;;;;7.98;48.18;96562.25;10280566;28;97638;-79
2022/03/09 18:11:51;;;;;;;27.83;18.00;;;;;;;7.72;48.03;96569.56;10271653;28;96923;-79
2022/03/09 18:16:54;;;;;;;29.58;17.48;;;;;;;7.36;47.97;96579.28;10289856;28;97293;-79
2022/03/09 18:21:57;;;;;;;27.65;17.05;;;;;;;7.13;48.04;96575.88;10280226;28;97049;-79
2022/03/09 18:27:05;;;;;;;30.55;16.20;;;;;;;7.07;47.83;96571.16;10279741;28;97251;-79
2022/03/09 18:32:08;;;;;;;21.38;13.77;;;;;;;6.92;47.42;96570.50;10276781;28;102370;-79
2022/03/09 18:37:14;;;;;;;18.75;12.18;;;;;;;6.70;47.48;96574.75;10272849;28;97675;-79
2022/03/09 18:42:18;;;;;;;21.48;12.10;;;;;;;7.01;47.01;96564.66;10274191;28;97309;-79
2022/03/09 18:47:21;;;;;;;26.58;14.02;;;;;;;6.88;46.76;96574.28;10278258;28;97024;-80
2022/03/09 18:52:24;;;;;;;21.70;13.80;;;;;;;6.71;46.80;96573.81;10272754;28;96926;-76
2022/03/09 18:57:28;;;;;;;19.08;11.65;;;;;;;6.25;47.74;96574.63;10286867;28;99114;-78
2022/03/09 19:02:31;;;;;;;17.17;10.93;;;;;;;5.84;48.45;96566.31;10280437;28;97932;-78
2022/03/09 19:07:34;;;;;;;21.58;11.30;;;;;;;5.60;49.34;96574.09;10279325;28;98085;-78
2022/03/09 19:12:38;;;;;;;18.45;10.93;;;;;;;5.42;49.13;96572.78;10279055;28;96782;-78
2022/03/09 19:17:41;;;;;;;21.65;12.95;;;;;;;5.25;49.54;96576.53;10286873;28;98405;-78
2022/03/09 19:22:44;;;;;;;22.52;13.93;;;;;;;5.26;49.85;96588.56;10280919;28;98644;-79
2022/03/09 19:27:48;;;;;;;23.38;14.88;;;;;;;5.35;49.44;96587.94;10276368;28;97126;-79
2022/03/09 19:32:51;;;;;;;21.73;13.30;;;;;;;5.41;48.90;96589.25;10269116;28;98404;-79
2022/03/09 19:37:54;;;;;;;26.77;16.15;;;;;;;5.37;49.38;96590.41;10272989;28;97901;-78
2022/03/09 19:42:59;;;;;;;28.60;18.13;;;;;;;5.43;49.45;96595.19;10268181;28;97291;-78
2022/03/09 19:48:01;;;;;;;29.13;17.77;;;;;;;5.41;49.46;96592.69;10270270;28;97151;-78
2022/03/09 19:53:04;;;;;;;79.28;45.90;;;;;;;4.99;50.59;96591.28;10273403;28;97044;-78
2022/03/09 19:58:09;;;;;;;30.67;19.15;;;;;;;4.65;51.78;96599.56;10289690;28;97205;-78
2022/03/09 20:03:14;;;;;;;28.17;16.85;;;;;;;4.25;52.85;96607.38;10274842;28;97301;-78
2022/03/09 20:08:18;;;;;;;34.53;18.70;;;;;;;4.19;52.23;96603.44;10272268;28;98892;-78
2022/03/09 20:13:25;;;;;;;29.08;16.15;;;;;;;4.25;52.75;96603.97;10275516;28;99461;-78
2022/03/09 20:18:27;;;;;;;27.85;16.52;;;;;;;4.24;52.29;96604.88;10283733;28;97887;-78
2022/03/09 20:23:32;;;;;;;28.20;16.58;;;;;;;4.25;51.60;96611.72;10260803;28;96854;-77
2022/03/09 20:28:37;;;;;;;31.77;18.38;;;;;;;4.05;51.58;96611.22;10280092;28;97036;-78
2022/03/09 20:33:43;;;;;;;28.08;16.45;;;;;;;3.91;52.40;96616.47;10280430;28;97124;-78
2022/03/09 20:38:47;;;;;;;26.15;16.20;;;;;;;3.71;52.39;96623.72;10280907;28;97596;-78
2022/03/09 20:43:51;;;;;;;27.42;15.65;;;;;;;3.71;52.03;96623.72;10277116;28;98631;-78
2022/03/09 20:48:54;;;;;;;29.13;16.23;;;;;;;3.72;50.97;96627.94;10277595;28;97749;-78
2022/03/09 20:53:57;;;;;;;27.77;17.13;;;;;;;3.68;52.33;96634.25;10273948;28;96797;-78
2022/03/09 20:59:01;;;;;;;28.17;17.13;;;;;;;3.40;53.49;96640.28;10280150;28;97331;-78
2022/03/09 21:04:06;;;;;;;28.30;16.60;;;;;;;2.97;54.55;96643.69;10261300;28;97432;-78
2022/03/09 21:09:09;;;;;;;29.88;17.65;;;;;;;2.62;54.88;96646.59;10263417;28;96985;-78
2022/03/09 21:14:15;;;;;;;30.42;19.27;;;;;;;2.55;55.03;96647.84;10264597;28;97743;-78
2022/03/09 21:19:19;;;;;;;34.80;20.70;;;;;;;2.56;55.53;96644.34;10281629;28;96837;-78
2022/03/09 21:24:22;;;;;;;32.92;19.50;;;;;;;2.38;55.95;96650.56;10267402;28;98707;-78
2022/03/09 21:29:27;;;;;;;29.80;17.88;;;;;;;2.33;56.13;96644.84;10280139;28;103759;-78
2022/03/09 21:34:29;;;;;;;28.90;16.20;;;;;;;2.44;55.58;96652.78;10276151;28;96896;-78
2022/03/09 21:39:32;;;;;;;29.60;16.73;;;;;;;2.42;56.28;96652.88;10283555;28;97032;-78
2022/03/09 21:44:37;;;;;;;26.63;15.18;;;;;;;2.45;56.91;96644.97;10278278;28;97065;-78
2022/03/09 21:49:40;;;;;;;24.80;14.52;;;;;;;2.44;56.92;96656.22;10275535;28;98048;-78
2022/03/09 21:54:43;;;;;;;25.30;15.48;;;;;;;2.37;56.79;96659.22;10273689;28;99379;-79
2022/03/09 21:59:47;;;;;;;26.35;15.63;;;;;;;2.33;57.45;96655.97;10273961;28;99440;-79
2022/03/09 22:04:50;;;;;;;21.55;13.77;;;;;;;2.26;57.81;96658.06;10278247;28;97991;-78
2022/03/09 22:09:53;;;;;;;21.98;13.85;;;;;;;2.09;58.33;96655.59;10280192;28;98169;-78
2022/03/09 22:14:57;;;;;;;22.55;13.68;;;;;;;2.12;58.04;96658.03;10287238;28;98998;-78
2022/03/09 22:20:00;;;;;;;23.45;13.55;;;;;;;2.09;57.45;96656.47;10278772;28;99354;-78
2022/03/09 22:25:03;;;;;;;24.98;15.25;;;;;;;2.08;57.05;96656.53;10283458;28;96952;-78
2022/03/09 22:30:09;;;;;;;31.00;18.08;;;;;;;1.89;57.96;96660.13;10286686;28;98125;-78
2022/03/09 22:35:12;;;;;;;28.85;16.55;;;;;;;1.80;58.00;96658.06;10282913;28;98573;-78
2022/03/09 22:40:15;;;;;;;32.95;17.73;;;;;;;1.78;58.02;96652.13;10287021;28;98829;-78
2022/03/09 22:45:20;;;;;;;27.27;17.10;;;;;;;1.60;59.14;96663.44;10287518;28;99305;-78
2022/03/09 22:50:23;;;;;;;30.17;17.38;;;;;;;1.43;59.48;96662.59;10269876;28;97024;-78
2022/03/09 22:55:26;;;;;;;27.88;15.98;;;;;;;1.40;59.43;96662.78;10279582;28;96884;-78
2022/03/09 23:00:42;;;;;;;25.92;15.32;;;;;;;1.40;58.53;96667.91;10288655;28;97010;-78
2022/03/09 23:05:46;;;;;;;28.63;14.40;;;;;;;1.36;58.61;96666.41;10290584;28;97041;-78
2022/03/09 23:10:48;;;;;;;23.23;13.35;;;;;;;1.31;57.67;96673.53;10286180;28;97636;-78